KSGU

St George Regional Airport

St George, Utah, USA
METAR KSGU 161756Z AUTO 25004KT 10SM -RA FEW004 SCT044 OVC060 07/06 A3026 RMK AO2 RAB37 SLP250 6//// T00670056 10067 20044 53026 PNO $
Observed Flight Rules
Jan-16 @ 17:56 UTC (28 minutes ago) Visual Flight Rules
Wind Visibility Clouds Conditions
250° at 4 knots 10 miles
  • Few at 400' AGL
  • Scattered at 4,400' AGL
  • Overcast at 6,000' AGL
  • Light Rain
Temperatures Readings
Current 7°C / 45°F
Dewpoint 6°C / 43°F
Humidity 93%
Altimeter 30.26" Hg
Pressure 1025 hPa
Elevation 896
METAR KSGU 161756Z AUTO 25004KT 10SM -RA FEW004 SCT044 OVC060 07/06 A3026 RMK AO2 RAB37 SLP250 6//// T00670056 10067 20044 53026 PNO $
Observed Flight Rules
Jan-16 @ 17:56 UTC
(28 minutes ago)
VFR
Wind Visibility
250° at 4 knots 10 miles
Clouds
  • Few at 400' AGL
  • Scattered at 4,400' AGL
  • Overcast at 6,000' AGL
Conditions
  • Light Rain
Temperature Dewpoint
7°C / 45°F 6°C / 43°F
Humidity Altimeter Pressure
93% 30.26" Hg 1025 hPa